Time;durP1;ratioP1;P1;durP2;ratioP2;P2;SDS_P1;SDS_P2;PMS_P1;PMS_P2;Temp;Humidity;BMP_temperature;BMP_pressure;BME280_temperature;BME280_humidity;BME280_pressure;Samples;Min_cycle;Max_cycle;Signal;HPM_P1;HPM_P2
2022/04/07 00:00:19;;;;;;;;;;;;;;;;;;1048094;28;3661;-68
2022/04/07 00:01:08;;;;;;;;;;;;;;;;;;1052765;28;4240;-67
2022/04/07 00:01:39;;;;;;;;;;;;;;;;;;1052395;28;3988;-65
2022/04/07 00:02:09;;;;;;;;;;;;;;;;;;1053235;28;2292;-65
2022/04/07 00:02:39;;;;;;;;;;;;;;;;;;1051059;28;4069;-68
2022/04/07 00:03:10;;;;;;;;;;;;;;;;;;1052359;28;2368;-66
2022/04/07 00:03:40;;;;;;;;;;;;;;;;;;1053021;28;4262;-66
2022/04/07 00:04:31;;;;;;;;;;;;;;;;;;1052596;28;2571;-65
2022/04/07 00:05:01;;;;;;;;;;;;;;;;;;1053159;28;3963;-68
2022/04/07 00:05:31;;;;;;;;;;;;;;;;;;1052536;28;4061;-68
2022/04/07 00:06:07;;;;;;;;;;;;;;;;;;1053270;28;2627;-67
2022/04/07 00:06:37;;;;;;;;;;;;;;;;;;1053789;28;4077;-66
2022/04/07 00:07:14;;;;;;;;;;;;;;;;;;1051973;28;2495;-65
2022/04/07 00:07:45;;;;;;;;;;;;;;;;;;1051783;28;3891;-68
2022/04/07 00:08:15;;;;;;;;;;;;;;;;;;1051758;28;3656;-68
2022/04/07 00:08:45;;;;;;;;;;;;;;;;;;1051587;28;4280;-65
2022/04/07 00:09:16;;;;;;;;;;;;;;;;;;1052764;28;3264;-66
2022/04/07 00:09:46;;;;;;;;;;;;;;;;;;1052534;28;3993;-66
2022/04/07 00:10:16;;;;;;;;;;;;;;;;;;1050941;28;3726;-68
2022/04/07 00:10:48;;;;;;;;;;;;;;;;;;1053425;28;3915;-67
2022/04/07 00:11:18;;;;;;;;;;;;;;;;;;1048390;28;1617;-68
2022/04/07 00:11:48;;;;;;;;;;;;;;;;;;1047865;28;4109;-66
2022/04/07 00:12:18;;;;;;;;;;;;;;;;;;1047251;28;1627;-67
2022/04/07 00:12:49;;;;;;;;;;;;;;;;;;1046834;28;3814;-66
2022/04/07 00:13:19;;;;;;;;;;;;;;;;;;1053893;28;1590;-67
2022/04/07 00:13:50;;;;;;;;;;;;;;;;;;1051537;28;3877;-66
2022/04/07 00:14:20;;;;;;;;;;;;;;;;;;1052015;28;2264;-68
2022/04/07 00:14:50;;;;;;;;;;;;;;;;;;1054073;28;3968;-68
2022/04/07 00:15:22;;;;;;;;;;;;;;;;;;1051401;28;3836;-66
2022/04/07 00:15:53;;;;;;;;;;;;;;;;;;1052523;28;4030;-67
2022/04/07 00:16:23;;;;;;;;;;;;;;;;;;1053061;28;1940;-67
2022/04/07 00:16:54;;;;;;;;;;;;;;;;;;1051828;28;4055;-66
2022/04/07 00:17:25;;;;;;;;;;;;;;;;;;1053956;28;2480;-69
2022/04/07 00:17:55;;;;;;;;;;;;;;;;;;1051050;28;3998;-66
2022/04/07 00:18:26;;;;;;;;;;;;;;;;;;1053635;28;2172;-69
2022/04/07 00:18:57;;;;;;;;;;;;;;;;;;1053420;28;4065;-66
2022/04/07 00:19:27;;;;;;;;;;;;;;;;;;1052496;28;2136;-67
2022/04/07 00:19:58;;;;;;;;;;;;;;;;;;1051414;28;4014;-67
2022/04/07 00:20:29;;;;;;;;;;;;;;;;;;1052124;28;2012;-68
2022/04/07 00:21:00;;;;;;;;;;;;;;;;;;1051728;28;4021;-68
2022/04/07 00:21:38;;;;;;;;;;;;;;;;;;1053580;28;2019;-68
2022/04/07 00:22:08;;;;;;;;;;;;;;;;;;1052144;28;3967;-68
2022/04/07 00:22:39;;;;;;;;;;;;;;;;;;1051167;28;3900;-65
2022/04/07 00:23:09;;;;;;;;;;;;;;;;;;1053084;28;2798;-67
2022/04/07 00:23:40;;;;;;;;;;;;;;;;;;1054261;28;4089;-66
2022/04/07 00:24:17;;;;;;;;;;;;;;;;;;1052599;28;2497;-67
2022/04/07 00:24:47;;;;;;;;;;;;;;;;;;1052623;28;4260;-68
2022/04/07 00:25:18;;;;;;;;;;;;;;;;;;1052317;28;3376;-67
2022/04/07 00:25:49;;;;;;;;;;;;;;;;;;1053847;28;3915;-67
2022/04/07 00:26:19;;;;;;;;;;;;;;;;;;1052740;28;2713;-65
2022/04/07 00:26:50;;;;;;;;;;;;;;;;;;1052862;28;4083;-67
2022/04/07 00:27:20;;;;;;;;;;;;;;;;;;1051983;28;3106;-68
2022/04/07 00:27:51;;;;;;;;;;;;;;;;;;1052623;28;4057;-67
2022/04/07 00:28:21;;;;;;;;;;;;;;;;;;1052336;28;2685;-68
2022/04/07 00:28:52;;;;;;;;;;;;;;;;;;1053085;28;3887;-67
2022/04/07 00:29:22;;;;;;;;;;;;;;;;;;1052241;28;3419;-68
2022/04/07 00:29:52;;;;;;;;;;;;;;;;;;1052615;28;3816;-66
2022/04/07 00:30:23;;;;;;;;;;;;;;;;;;1051503;28;3780;-66
2022/04/07 00:30:53;;;;;;;;;;;;;;;;;;1051227;28;4130;-66
2022/04/07 00:31:24;;;;;;;;;;;;;;;;;;1053651;28;2660;-67
2022/04/07 00:31:57;;;;;;;;;;;;;;;;;;1053498;28;3780;-66
2022/04/07 00:32:28;;;;;;;;;;;;;;;;;;1051719;28;3641;-65
2022/04/07 00:32:58;;;;;;;;;;;;;;;;;;1053008;28;3889;-66
2022/04/07 00:33:28;;;;;;;;;;;;;;;;;;1050780;28;2599;-67
2022/04/07 00:33:58;;;;;;;;;;;;;;;;;;1052410;28;4050;-66
2022/04/07 00:34:29;;;;;;;;;;;;;;;;;;1048108;28;2817;-67
2022/04/07 00:34:59;;;;;;;;;;;;;;;;;;1048404;28;3960;-67
2022/04/07 00:35:30;;;;;;;;;;;;;;;;;;1042930;28;2427;-65
2022/04/07 00:36:02;;;;;;;;;;;;;;;;;;1043320;28;4076;-66
2022/04/07 00:36:33;;;;;;;;;;;;;;;;;;1048405;28;5070;-67
2022/04/07 00:37:03;;;;;;;;;;;;;;;;;;1049129;28;2301;-66
2022/04/07 00:37:34;;;;;;;;;;;;;;;;;;1051113;28;4100;-66
2022/04/07 00:38:04;;;;;;;;;;;;;;;;;;1050939;28;2613;-68
2022/04/07 00:38:34;;;;;;;;;;;;;;;;;;1048234;28;3898;-67
2022/04/07 00:39:05;;;;;;;;;;;;;;;;;;1047856;28;2814;-65
2022/04/07 00:39:35;;;;;;;;;;;;;;;;;;1052184;28;4085;-66
2022/04/07 00:40:06;;;;;;;;;;;;;;;;;;1051863;28;2065;-65
2022/04/07 00:40:37;;;;;;;;;;;;;;;;;;1053292;28;3898;-67
2022/04/07 00:41:07;;;;;;;;;;;;;;;;;;1053339;28;3742;-66
2022/04/07 00:41:39;;;;;;;;;;;;;;;;;;1053689;28;3900;-67
2022/04/07 00:42:09;;;;;;;;;;;;;;;;;;1053692;28;3241;-67
2022/04/07 00:42:46;;;;;;;;;;;;;;;;;;1050658;28;4057;-68
2022/04/07 00:43:29;;;;;;;;;;;;;;;;;;1053093;28;2571;-66
2022/04/07 00:44:00;;;;;;;;;;;;;;;;;;1052246;28;3984;-67
2022/04/07 00:44:30;;;;;;;;;;;;;;;;;;1053300;28;2133;-68
2022/04/07 00:45:00;;;;;;;;;;;;;;;;;;1051904;28;4004;-65
2022/04/07 00:45:31;;;;;;;;;;;;;;;;;;1052648;28;3238;-69
2022/04/07 00:46:02;;;;;;;;;;;;;;;;;;1053235;28;3801;-67
2022/04/07 00:46:32;;;;;;;;;;;;;;;;;;1046949;28;4082;-67
2022/04/07 00:47:02;;;;;;;;;;;;;;;;;;1046009;28;3543;-68
2022/04/07 00:47:33;;;;;;;;;;;;;;;;;;1046942;28;4149;-66
2022/04/07 00:48:03;;;;;;;;;;;;;;;;;;1045924;28;2605;-64
2022/04/07 00:48:35;;;;;;;;;;;;;;;;;;1049842;28;4126;-65
2022/04/07 00:49:06;;;;;;;;;;;;;;;;;;1051919;28;2452;-67
2022/04/07 00:49:36;;;;;;;;;;;;;;;;;;1053011;28;3940;-65
2022/04/07 00:50:07;;;;;;;;;;;;;;;;;;1053490;28;2146;-67
2022/04/07 00:50:37;;;;;;;;;;;;;;;;;;1051756;28;4057;-66
2022/04/07 00:51:07;;;;;;;;;;;;;;;;;;1051832;28;2927;-67
2022/04/07 00:51:39;;;;;;;;;;;;;;;;;;1053341;28;4077;-67
2022/04/07 00:52:10;;;;;;;;;;;;;;;;;;1052743;28;2458;-66
2022/04/07 00:52:41;;;;;;;;;;;;;;;;;;1052355;28;4055;-66
2022/04/07 00:53:11;;;;;;;;;;;;;;;;;;1051795;28;3860;-66
2022/04/07 00:53:42;;;;;;;;;;;;;;;;;;1053618;28;4073;-67
2022/04/07 00:54:12;;;;;;;;;;;;;;;;;;1051892;28;2518;-64
2022/04/07 00:54:43;;;;;;;;;;;;;;;;;;1052765;28;3971;-66
2022/04/07 00:55:14;;;;;;;;;;;;;;;;;;1052482;28;2515;-67
2022/04/07 00:55:45;;;;;;;;;;;;;;;;;;1053705;28;4016;-68
2022/04/07 00:56:15;;;;;;;;;;;;;;;;;;1050894;28;3714;-67
2022/04/07 00:56:46;;;;;;;;;;;;;;;;;;1049780;28;3917;-65
2022/04/07 00:57:16;;;;;;;;;;;;;;;;;;1047645;28;2367;-67
2022/04/07 00:57:47;;;;;;;;;;;;;;;;;;1048459;28;4067;-67
2022/04/07 00:58:18;;;;;;;;;;;;;;;;;;1051344;28;2184;-67
2022/04/07 00:58:49;;;;;;;;;;;;;;;;;;1053214;28;4163;-66
2022/04/07 00:59:21;;;;;;;;;;;;;;;;;;1051694;28;3218;-66
2022/04/07 00:59:51;;;;;;;;;;;;;;;;;;1047042;28;4078;-66
2022/04/07 01:00:22;;;;;;;;;;;;;;;;;;1048557;28;3629;-66
2022/04/07 01:00:52;;;;;;;;;;;;;;;;;;1045228;28;4209;-65
2022/04/07 01:01:24;;;;;;;;;;;;;;;;;;1049439;28;2124;-68
2022/04/07 01:01:55;;;;;;;;;;;;;;;;;;1053472;28;3876;-67
2022/04/07 01:02:31;;;;;;;;;;;;;;;;;;1053280;28;2060;-67
2022/04/07 01:03:01;;;;;;;;;;;;;;;;;;1052924;28;3849;-66
2022/04/07 01:03:32;;;;;;;;;;;;;;;;;;1052369;28;4059;-66
2022/04/07 01:04:16;;;;;;;;;;;;;;;;;;1050222;28;3523;-66
2022/04/07 01:04:53;;;;;;;;;;;;;;;;;;1052011;28;3961;-67
2022/04/07 01:05:23;;;;;;;;;;;;;;;;;;1052058;28;3725;-67
2022/04/07 01:05:54;;;;;;;;;;;;;;;;;;1052768;28;3872;-67
2022/04/07 01:06:24;;;;;;;;;;;;;;;;;;1053399;28;2225;-67
2022/04/07 01:06:55;;;;;;;;;;;;;;;;;;1053348;28;4008;-67
2022/04/07 01:07:25;;;;;;;;;;;;;;;;;;1052658;28;2801;-68
2022/04/07 01:07:55;;;;;;;;;;;;;;;;;;1053367;28;3850;-68
2022/04/07 01:08:25;;;;;;;;;;;;;;;;;;1052565;28;2027;-68
2022/04/07 01:08:56;;;;;;;;;;;;;;;;;;1052231;28;3986;-66
2022/04/07 01:09:26;;;;;;;;;;;;;;;;;;1052257;28;3003;-65
2022/04/07 01:09:56;;;;;;;;;;;;;;;;;;1052991;28;4058;-67
2022/04/07 01:10:28;;;;;;;;;;;;;;;;;;1053551;28;2282;-66
2022/04/07 01:10:59;;;;;;;;;;;;;;;;;;1049978;28;4196;-69
2022/04/07 01:11:31;;;;;;;;;;;;;;;;;;1051052;28;3568;-64
2022/04/07 01:12:01;;;;;;;;;;;;;;;;;;1052146;28;3881;-68
2022/04/07 01:12:32;;;;;;;;;;;;;;;;;;1052089;28;4079;-68
2022/04/07 01:13:02;;;;;;;;;;;;;;;;;;1052120;28;2273;-66
2022/04/07 01:13:52;;;;;;;;;;;;;;;;;;1053587;28;4099;-68
2022/04/07 01:14:22;;;;;;;;;;;;;;;;;;1052119;28;2425;-68
2022/04/07 01:14:53;;;;;;;;;;;;;;;;;;1052623;28;3806;-69
2022/04/07 01:15:24;;;;;;;;;;;;;;;;;;1052450;28;2264;-66
2022/04/07 01:15:54;;;;;;;;;;;;;;;;;;1049572;28;3859;-66
2022/04/07 01:16:28;;;;;;;;;;;;;;;;;;1048174;28;2237;-66
2022/04/07 01:16:58;;;;;;;;;;;;;;;;;;1048764;28;4037;-65
2022/04/07 01:17:28;;;;;;;;;;;;;;;;;;1050246;28;1723;-67
2022/04/07 01:18:00;;;;;;;;;;;;;;;;;;1052633;28;4054;-66
2022/04/07 01:18:30;;;;;;;;;;;;;;;;;;1049555;28;3813;-69
2022/04/07 01:19:00;;;;;;;;;;;;;;;;;;1047349;28;3888;-66
2022/04/07 01:19:30;;;;;;;;;;;;;;;;;;1042558;28;1913;-66
2022/04/07 01:20:02;;;;;;;;;;;;;;;;;;1042748;28;3771;-66
2022/04/07 01:20:32;;;;;;;;;;;;;;;;;;1047149;28;4112;-67
2022/04/07 01:21:02;;;;;;;;;;;;;;;;;;1045312;28;2636;-65
2022/04/07 01:21:34;;;;;;;;;;;;;;;;;;1053356;28;3910;-66
2022/04/07 01:22:04;;;;;;;;;;;;;;;;;;1053767;28;2359;-67
2022/04/07 01:22:35;;;;;;;;;;;;;;;;;;1054576;28;3917;-67
2022/04/07 01:23:07;;;;;;;;;;;;;;;;;;1052460;28;2560;-67
2022/04/07 01:23:38;;;;;;;;;;;;;;;;;;1054063;28;3935;-67
2022/04/07 01:24:09;;;;;;;;;;;;;;;;;;1053680;28;1685;-67
2022/04/07 01:24:40;;;;;;;;;;;;;;;;;;1053661;28;3906;-67
2022/04/07 01:25:10;;;;;;;;;;;;;;;;;;1053142;28;2690;-66
2022/04/07 01:25:41;;;;;;;;;;;;;;;;;;1048135;28;3824;-68
2022/04/07 01:26:12;;;;;;;;;;;;;;;;;;1047235;28;2274;-66
2022/04/07 01:26:43;;;;;;;;;;;;;;;;;;1045204;28;4061;-69
2022/04/07 01:27:14;;;;;;;;;;;;;;;;;;1049017;28;3273;-67
2022/04/07 01:27:49;;;;;;;;;;;;;;;;;;1054815;28;4148;-67
2022/04/07 01:28:19;;;;;;;;;;;;;;;;;;1053195;28;1668;-67
2022/04/07 01:28:49;;;;;;;;;;;;;;;;;;1053778;28;3929;-67
2022/04/07 01:29:22;;;;;;;;;;;;;;;;;;1049000;28;2156;-66
2022/04/07 01:29:52;;;;;;;;;;;;;;;;;;1048269;28;3969;-68
2022/04/07 01:30:23;;;;;;;;;;;;;;;;;;1047734;28;3747;-68
2022/04/07 01:30:53;;;;;;;;;;;;;;;;;;1046199;28;4084;-67
2022/04/07 01:31:23;;;;;;;;;;;;;;;;;;1050816;28;3759;-65
2022/04/07 01:31:53;;;;;;;;;;;;;;;;;;1053089;28;4076;-67
2022/04/07 01:32:29;;;;;;;;;;;;;;;;;;1054481;28;2568;-68
2022/04/07 01:33:00;;;;;;;;;;;;;;;;;;1052891;28;4022;-67
2022/04/07 01:33:32;;;;;;;;;;;;;;;;;;1054139;28;4025;-67
2022/04/07 01:34:05;;;;;;;;;;;;;;;;;;1053521;28;3926;-66
2022/04/07 01:34:35;;;;;;;;;;;;;;;;;;1053464;28;3866;-66
2022/04/07 01:35:05;;;;;;;;;;;;;;;;;;1052988;28;2375;-69
2022/04/07 01:35:36;;;;;;;;;;;;;;;;;;1053734;28;4092;-64
2022/04/07 01:36:06;;;;;;;;;;;;;;;;;;1048319;28;3071;-67
2022/04/07 01:36:38;;;;;;;;;;;;;;;;;;1048556;28;4350;-67
2022/04/07 01:37:08;;;;;;;;;;;;;;;;;;1047890;28;2392;-67
2022/04/07 01:37:40;;;;;;;;;;;;;;;;;;1050782;28;3825;-69
2022/04/07 01:38:11;;;;;;;;;;;;;;;;;;1053597;28;2641;-68
2022/04/07 01:38:41;;;;;;;;;;;;;;;;;;1054027;28;4043;-68
2022/04/07 01:39:13;;;;;;;;;;;;;;;;;;1053104;28;3588;-67
2022/04/07 01:39:44;;;;;;;;;;;;;;;;;;1053559;28;4160;-68
2022/04/07 01:40:21;;;;;;;;;;;;;;;;;;1054243;28;2518;-68
2022/04/07 01:40:51;;;;;;;;;;;;;;;;;;1053024;28;3811;-68
2022/04/07 01:41:22;;;;;;;;;;;;;;;;;;1052165;28;2441;-69
2022/04/07 01:41:53;;;;;;;;;;;;;;;;;;1053856;28;3884;-66
2022/04/07 01:42:24;;;;;;;;;;;;;;;;;;1054496;28;1596;-67
2022/04/07 01:42:54;;;;;;;;;;;;;;;;;;1052320;28;4069;-66
2022/04/07 01:43:24;;;;;;;;;;;;;;;;;;1054194;28;2810;-67
2022/04/07 01:43:56;;;;;;;;;;;;;;;;;;1054111;28;3951;-67
2022/04/07 01:44:27;;;;;;;;;;;;;;;;;;1053503;28;2544;-66
2022/04/07 01:44:58;;;;;;;;;;;;;;;;;;1053011;28;3878;-65
2022/04/07 01:45:30;;;;;;;;;;;;;;;;;;1053030;28;3655;-67
2022/04/07 01:46:01;;;;;;;;;;;;;;;;;;1053426;28;5325;-67
2022/04/07 01:46:33;;;;;;;;;;;;;;;;;;1054315;28;4154;-67
2022/04/07 01:47:03;;;;;;;;;;;;;;;;;;1053139;28;2395;-67
2022/04/07 01:47:34;;;;;;;;;;;;;;;;;;1053212;28;4053;-67
2022/04/07 01:48:07;;;;;;;;;;;;;;;;;;1052210;28;3694;-69
2022/04/07 01:48:37;;;;;;;;;;;;;;;;;;1053792;28;4073;-67
2022/04/07 01:49:07;;;;;;;;;;;;;;;;;;1053413;28;2300;-67
2022/04/07 01:49:38;;;;;;;;;;;;;;;;;;1051975;28;4132;-66
2022/04/07 01:50:09;;;;;;;;;;;;;;;;;;1052791;28;2562;-68
2022/04/07 01:50:40;;;;;;;;;;;;;;;;;;1053511;28;4063;-67
2022/04/07 01:51:17;;;;;;;;;;;;;;;;;;1053675;28;3690;-67
2022/04/07 01:51:48;;;;;;;;;;;;;;;;;;1052512;28;4177;-67
2022/04/07 01:52:19;;;;;;;;;;;;;;;;;;1049277;28;2629;-67
2022/04/07 01:52:49;;;;;;;;;;;;;;;;;;1049114;28;4103;-66
2022/04/07 01:53:20;;;;;;;;;;;;;;;;;;1048509;28;2272;-68
2022/04/07 01:53:51;;;;;;;;;;;;;;;;;;1049173;28;3790;-66
2022/04/07 01:54:22;;;;;;;;;;;;;;;;;;1054829;28;2531;-68
2022/04/07 01:54:52;;;;;;;;;;;;;;;;;;1051216;28;3892;-66
2022/04/07 01:55:23;;;;;;;;;;;;;;;;;;1053067;28;2208;-67
2022/04/07 01:55:54;;;;;;;;;;;;;;;;;;1054282;28;3847;-66
2022/04/07 01:56:24;;;;;;;;;;;;;;;;;;1053868;28;2511;-66
2022/04/07 01:56:55;;;;;;;;;;;;;;;;;;1053860;28;4284;-67
2022/04/07 01:57:26;;;;;;;;;;;;;;;;;;1048958;28;2412;-67
2022/04/07 01:57:56;;;;;;;;;;;;;;;;;;1049072;28;4051;-66
2022/04/07 01:58:27;;;;;;;;;;;;;;;;;;1050132;28;2508;-67
2022/04/07 01:58:57;;;;;;;;;;;;;;;;;;1049102;28;3950;-65
2022/04/07 01:59:28;;;;;;;;;;;;;;;;;;1052343;28;2435;-67
2022/04/07 01:59:59;;;;;;;;;;;;;;;;;;1052228;28;3785;-64
2022/04/07 02:00:29;;;;;;;;;;;;;;;;;;1052809;28;2638;-66
2022/04/07 02:00:59;;;;;;;;;;;;;;;;;;1052599;28;4055;-65
2022/04/07 02:01:29;;;;;;;;;;;;;;;;;;1053761;28;2781;-67
2022/04/07 02:02:00;;;;;;;;;;;;;;;;;;1053355;28;3984;-66
2022/04/07 02:02:30;;;;;;;;;;;;;;;;;;1054770;28;1677;-66
2022/04/07 02:03:04;;;;;;;;;;;;;;;;;;1053253;28;4041;-66
2022/04/07 02:03:34;;;;;;;;;;;;;;;;;;1053215;28;4109;-69
2022/04/07 02:04:18;;;;;;;;;;;;;;;;;;1052112;28;2368;-64
2022/04/07 02:04:56;;;;;;;;;;;;;;;;;;1052259;28;3976;-68
2022/04/07 02:05:26;;;;;;;;;;;;;;;;;;1053836;28;2431;-66
2022/04/07 02:06:09;;;;;;;;;;;;;;;;;;1053074;28;3871;-65
2022/04/07 02:06:40;;;;;;;;;;;;;;;;;;1048371;28;4082;-67
2022/04/07 02:07:10;;;;;;;;;;;;;;;;;;1047139;28;2194;-66
2022/04/07 02:07:41;;;;;;;;;;;;;;;;;;1048528;28;3952;-66
2022/04/07 02:08:12;;;;;;;;;;;;;;;;;;1046302;28;2227;-67
2022/04/07 02:08:42;;;;;;;;;;;;;;;;;;1052189;28;3927;-67
2022/04/07 02:09:13;;;;;;;;;;;;;;;;;;1053172;28;2179;-65
2022/04/07 02:09:43;;;;;;;;;;;;;;;;;;1053676;28;3912;-66
2022/04/07 02:10:14;;;;;;;;;;;;;;;;;;1051520;28;2775;-65
2022/04/07 02:10:44;;;;;;;;;;;;;;;;;;1052612;28;4123;-66
2022/04/07 02:11:15;;;;;;;;;;;;;;;;;;1053127;28;2127;-66
2022/04/07 02:11:46;;;;;;;;;;;;;;;;;;1051683;28;4053;-66
2022/04/07 02:12:20;;;;;;;;;;;;;;;;;;1050838;28;2272;-66
2022/04/07 02:12:50;;;;;;;;;;;;;;;;;;1051597;28;4281;-67
2022/04/07 02:13:21;;;;;;;;;;;;;;;;;;1050309;28;1879;-65
2022/04/07 02:13:51;;;;;;;;;;;;;;;;;;1054227;28;4076;-67
2022/04/07 02:14:21;;;;;;;;;;;;;;;;;;1053922;28;2668;-66
2022/04/07 02:14:52;;;;;;;;;;;;;;;;;;1054764;28;4042;-65
2022/04/07 02:15:24;;;;;;;;;;;;;;;;;;1052661;28;2757;-64
2022/04/07 02:15:54;;;;;;;;;;;;;;;;;;1053105;28;3872;-66
2022/04/07 02:16:24;;;;;;;;;;;;;;;;;;1054605;28;2309;-67
2022/04/07 02:16:54;;;;;;;;;;;;;;;;;;1052897;28;4045;-65
2022/04/07 02:17:25;;;;;;;;;;;;;;;;;;1053234;28;2301;-67
2022/04/07 02:17:55;;;;;;;;;;;;;;;;;;1053774;28;4051;-65
2022/04/07 02:18:25;;;;;;;;;;;;;;;;;;1049689;28;2708;-66
2022/04/07 02:18:56;;;;;;;;;;;;;;;;;;1049971;28;3964;-66
2022/04/07 02:19:27;;;;;;;;;;;;;;;;;;1050609;28;1985;-67
2022/04/07 02:19:58;;;;;;;;;;;;;;;;;;1047677;28;4058;-68
2022/04/07 02:20:29;;;;;;;;;;;;;;;;;;1052918;28;2368;-68
2022/04/07 02:20:59;;;;;;;;;;;;;;;;;;1051679;28;4097;-65
2022/04/07 02:21:29;;;;;;;;;;;;;;;;;;1054598;28;2498;-67
2022/04/07 02:21:59;;;;;;;;;;;;;;;;;;1053740;28;4029;-68
2022/04/07 02:22:30;;;;;;;;;;;;;;;;;;1053627;28;2628;-67
2022/04/07 02:23:00;;;;;;;;;;;;;;;;;;1049610;28;4007;-68
2022/04/07 02:23:30;;;;;;;;;;;;;;;;;;1049606;28;2815;-68
2022/04/07 02:24:01;;;;;;;;;;;;;;;;;;1049326;28;4003;-65
2022/04/07 02:24:31;;;;;;;;;;;;;;;;;;1051460;28;2481;-66
2022/04/07 02:25:02;;;;;;;;;;;;;;;;;;1053443;28;3811;-65
2022/04/07 02:25:32;;;;;;;;;;;;;;;;;;1053341;28;3881;-69
2022/04/07 02:26:02;;;;;;;;;;;;;;;;;;1053568;28;2360;-68
2022/04/07 02:26:33;;;;;;;;;;;;;;;;;;1053394;28;4161;-68
2022/04/07 02:27:03;;;;;;;;;;;;;;;;;;1052485;28;2799;-65
2022/04/07 02:27:37;;;;;;;;;;;;;;;;;;1053731;28;3990;-66
2022/04/07 02:28:07;;;;;;;;;;;;;;;;;;1053187;28;2442;-67
2022/04/07 02:28:38;;;;;;;;;;;;;;;;;;1054252;28;4072;-66
2022/04/07 02:29:08;;;;;;;;;;;;;;;;;;1051265;28;3372;-66
2022/04/07 02:29:40;;;;;;;;;;;;;;;;;;1053822;28;4139;-65
2022/04/07 02:30:11;;;;;;;;;;;;;;;;;;1047372;28;2273;-67
2022/04/07 02:30:41;;;;;;;;;;;;;;;;;;1048100;28;4239;-66
2022/04/07 02:31:12;;;;;;;;;;;;;;;;;;1046136;28;2687;-67
2022/04/07 02:31:42;;;;;;;;;;;;;;;;;;1049075;28;4431;-65
2022/04/07 02:32:12;;;;;;;;;;;;;;;;;;1053519;28;2721;-65
2022/04/07 02:32:43;;;;;;;;;;;;;;;;;;1053384;28;3997;-66
2022/04/07 02:33:13;;;;;;;;;;;;;;;;;;1053622;28;1816;-66
2022/04/07 02:33:44;;;;;;;;;;;;;;;;;;1053392;28;3977;-66
2022/04/07 02:34:14;;;;;;;;;;;;;;;;;;1052767;28;2123;-67
2022/04/07 02:34:45;;;;;;;;;;;;;;;;;;1051074;28;3846;-67
2022/04/07 02:35:15;;;;;;;;;;;;;;;;;;1053944;28;2344;-68
2022/04/07 02:35:45;;;;;;;;;;;;;;;;;;1054222;28;4058;-66
2022/04/07 02:36:17;;;;;;;;;;;;;;;;;;1049144;28;2409;-66
2022/04/07 02:36:48;;;;;;;;;;;;;;;;;;1050059;28;4059;-66
2022/04/07 02:37:18;;;;;;;;;;;;;;;;;;1048363;28;2437;-65
2022/04/07 02:37:48;;;;;;;;;;;;;;;;;;1046325;28;4215;-68
2022/04/07 02:38:18;;;;;;;;;;;;;;;;;;1047896;28;3068;-66
2022/04/07 02:38:49;;;;;;;;;;;;;;;;;;1047640;28;4074;-67
2022/04/07 02:39:19;;;;;;;;;;;;;;;;;;1047457;28;2542;-63
2022/04/07 02:39:49;;;;;;;;;;;;;;;;;;1047641;28;4305;-66
2022/04/07 02:40:19;;;;;;;;;;;;;;;;;;1046363;28;2642;-66
2022/04/07 02:40:49;;;;;;;;;;;;;;;;;;1047380;28;3930;-67
2022/04/07 02:41:20;;;;;;;;;;;;;;;;;;1046792;28;2744;-65
2022/04/07 02:41:50;;;;;;;;;;;;;;;;;;1053355;28;3909;-65
2022/04/07 02:42:20;;;;;;;;;;;;;;;;;;1049430;28;1888;-68
2022/04/07 02:42:51;;;;;;;;;;;;;;;;;;1049532;28;3933;-67
2022/04/07 02:43:21;;;;;;;;;;;;;;;;;;1047530;28;2980;-65
2022/04/07 02:43:51;;;;;;;;;;;;;;;;;;1050254;28;3902;-65
2022/04/07 02:44:21;;;;;;;;;;;;;;;;;;1051871;28;2035;-67
2022/04/07 02:44:52;;;;;;;;;;;;;;;;;;1053939;28;4206;-66
2022/04/07 02:45:22;;;;;;;;;;;;;;;;;;1051537;28;2883;-68
2022/04/07 02:45:59;;;;;;;;;;;;;;;;;;1053575;28;3818;-65
2022/04/07 02:46:29;;;;;;;;;;;;;;;;;;1052732;28;2262;-67
2022/04/07 02:47:00;;;;;;;;;;;;;;;;;;1053348;28;4069;-65
2022/04/07 02:47:31;;;;;;;;;;;;;;;;;;1053598;28;3065;-65
2022/04/07 02:48:01;;;;;;;;;;;;;;;;;;1052919;28;3891;-67
2022/04/07 02:48:32;;;;;;;;;;;;;;;;;;1053977;28;4075;-66
2022/04/07 02:49:02;;;;;;;;;;;;;;;;;;1052660;28;2458;-64
2022/04/07 02:49:32;;;;;;;;;;;;;;;;;;1051983;28;4070;-66
2022/04/07 02:50:03;;;;;;;;;;;;;;;;;;1051038;28;3502;-65
2022/04/07 02:50:33;;;;;;;;;;;;;;;;;;1053120;28;4241;-65
2022/04/07 02:51:04;;;;;;;;;;;;;;;;;;1054298;28;2201;-66
2022/04/07 02:51:34;;;;;;;;;;;;;;;;;;1053216;28;5361;-67
2022/04/07 02:52:08;;;;;;;;;;;;;;;;;;1053944;28;3027;-65
2022/04/07 02:52:39;;;;;;;;;;;;;;;;;;1053009;28;4060;-67
2022/04/07 02:53:09;;;;;;;;;;;;;;;;;;1054301;28;1940;-65
2022/04/07 02:53:39;;;;;;;;;;;;;;;;;;1052909;28;4091;-67
2022/04/07 02:54:10;;;;;;;;;;;;;;;;;;1053611;28;2395;-68
2022/04/07 02:54:40;;;;;;;;;;;;;;;;;;1052517;28;3913;-67
2022/04/07 02:55:11;;;;;;;;;;;;;;;;;;1051990;28;2283;-64
2022/04/07 02:55:41;;;;;;;;;;;;;;;;;;1054120;28;4056;-66
2022/04/07 02:56:12;;;;;;;;;;;;;;;;;;1052965;28;2441;-67
2022/04/07 02:56:42;;;;;;;;;;;;;;;;;;1049324;28;4206;-66
2022/04/07 02:57:12;;;;;;;;;;;;;;;;;;1049364;28;2255;-68
2022/04/07 02:57:43;;;;;;;;;;;;;;;;;;1049350;28;3898;-68
2022/04/07 02:58:13;;;;;;;;;;;;;;;;;;1049259;28;2806;-66
2022/04/07 02:58:43;;;;;;;;;;;;;;;;;;1054011;28;4043;-66
2022/04/07 02:59:13;;;;;;;;;;;;;;;;;;1053332;28;2421;-66
2022/04/07 02:59:44;;;;;;;;;;;;;;;;;;1051970;28;4113;-69
2022/04/07 03:00:14;;;;;;;;;;;;;;;;;;1052488;28;2504;-67
2022/04/07 03:00:44;;;;;;;;;;;;;;;;;;1053896;28;4055;-66
2022/04/07 03:01:15;;;;;;;;;;;;;;;;;;1053143;28;2589;-66
2022/04/07 03:01:45;;;;;;;;;;;;;;;;;;1054441;28;3889;-65
2022/04/07 03:02:16;;;;;;;;;;;;;;;;;;1051569;28;2526;-65
2022/04/07 03:02:46;;;;;;;;;;;;;;;;;;1053330;28;4170;-67
2022/04/07 03:03:16;;;;;;;;;;;;;;;;;;1053613;28;2369;-65
2022/04/07 03:03:48;;;;;;;;;;;;;;;;;;1053857;28;4122;-68
2022/04/07 03:04:32;;;;;;;;;;;;;;;;;;1051046;28;2450;-66
2022/04/07 03:05:09;;;;;;;;;;;;;;;;;;1046040;28;4012;-66
2022/04/07 03:05:39;;;;;;;;;;;;;;;;;;1046414;28;3940;-66
2022/04/07 03:06:10;;;;;;;;;;;;;;;;;;1046531;28;2439;-67
2022/04/07 03:06:40;;;;;;;;;;;;;;;;;;1046259;28;4079;-66
2022/04/07 03:07:10;;;;;;;;;;;;;;;;;;1052373;28;2612;-68
2022/04/07 03:07:40;;;;;;;;;;;;;;;;;;1054154;28;4256;-66
2022/04/07 03:08:12;;;;;;;;;;;;;;;;;;1052557;28;2435;-66
2022/04/07 03:08:43;;;;;;;;;;;;;;;;;;1053328;28;3935;-67
2022/04/07 03:09:13;;;;;;;;;;;;;;;;;;1051296;28;2493;-66
2022/04/07 03:09:43;;;;;;;;;;;;;;;;;;1053295;28;4074;-65
2022/04/07 03:10:15;;;;;;;;;;;;;;;;;;1052068;28;2478;-67
2022/04/07 03:10:45;;;;;;;;;;;;;;;;;;1053216;28;4036;-65
2022/04/07 03:11:15;;;;;;;;;;;;;;;;;;1053261;28;2723;-67
2022/04/07 03:11:46;;;;;;;;;;;;;;;;;;1054472;28;4094;-66
2022/04/07 03:12:17;;;;;;;;;;;;;;;;;;1052971;28;2615;-67
2022/04/07 03:12:47;;;;;;;;;;;;;;;;;;1053374;28;4111;-67
2022/04/07 03:13:18;;;;;;;;;;;;;;;;;;1052229;28;2211;-67
2022/04/07 03:13:48;;;;;;;;;;;;;;;;;;1049807;28;3898;-66
2022/04/07 03:14:18;;;;;;;;;;;;;;;;;;1049145;28;2527;-67
2022/04/07 03:14:48;;;;;;;;;;;;;;;;;;1050059;28;4096;-67
2022/04/07 03:15:19;;;;;;;;;;;;;;;;;;1047434;28;2773;-66
2022/04/07 03:15:49;;;;;;;;;;;;;;;;;;1054525;28;3916;-67
2022/04/07 03:16:19;;;;;;;;;;;;;;;;;;1053219;28;2387;-65
2022/04/07 03:16:49;;;;;;;;;;;;;;;;;;1053611;28;3940;-67
2022/04/07 03:17:20;;;;;;;;;;;;;;;;;;1052466;28;2661;-65
2022/04/07 03:17:50;;;;;;;;;;;;;;;;;;1053178;28;4076;-66
2022/04/07 03:18:20;;;;;;;;;;;;;;;;;;1052633;28;2618;-68
2022/04/07 03:18:50;;;;;;;;;;;;;;;;;;1053452;28;4030;-66
2022/04/07 03:19:21;;;;;;;;;;;;;;;;;;1050217;28;2531;-67
2022/04/07 03:19:51;;;;;;;;;;;;;;;;;;1053967;28;4266;-65
2022/04/07 03:20:22;;;;;;;;;;;;;;;;;;1052156;28;2348;-68
2022/04/07 03:20:52;;;;;;;;;;;;;;;;;;1052812;28;4436;-66
2022/04/07 03:21:22;;;;;;;;;;;;;;;;;;1053229;28;2975;-67
2022/04/07 03:21:52;;;;;;;;;;;;;;;;;;1053418;28;4025;-67
2022/04/07 03:22:23;;;;;;;;;;;;;;;;;;1050801;28;1744;-66
2022/04/07 03:22:54;;;;;;;;;;;;;;;;;;1048785;28;3831;-67
2022/04/07 03:23:24;;;;;;;;;;;;;;;;;;1049555;28;2427;-65
2022/04/07 03:23:54;;;;;;;;;;;;;;;;;;1048124;28;4106;-69
2022/04/07 03:24:25;;;;;;;;;;;;;;;;;;1053656;28;2142;-65
2022/04/07 03:24:55;;;;;;;;;;;;;;;;;;1052094;28;4224;-68
2022/04/07 03:25:26;;;;;;;;;;;;;;;;;;1052328;28;2361;-67
2022/04/07 03:25:56;;;;;;;;;;;;;;;;;;1053570;28;4174;-67
2022/04/07 03:26:26;;;;;;;;;;;;;;;;;;1053144;28;2306;-67
2022/04/07 03:26:57;;;;;;;;;;;;;;;;;;1051891;28;3916;-66
2022/04/07 03:27:27;;;;;;;;;;;;;;;;;;1053082;28;2867;-67
2022/04/07 03:27:57;;;;;;;;;;;;;;;;;;1053403;28;3924;-65
2022/04/07 03:28:27;;;;;;;;;;;;;;;;;;1051397;28;3733;-66
2022/04/07 03:28:58;;;;;;;;;;;;;;;;;;1049882;28;3956;-68
2022/04/07 03:29:30;;;;;;;;;;;;;;;;;;1044953;28;2306;-66
2022/04/07 03:30:00;;;;;;;;;;;;;;;;;;1046314;28;3779;-66
2022/04/07 03:30:30;;;;;;;;;;;;;;;;;;1046422;28;2883;-66
2022/04/07 03:31:00;;;;;;;;;;;;;;;;;;1046477;28;4021;-67
2022/04/07 03:31:31;;;;;;;;;;;;;;;;;;1053547;28;2689;-67
2022/04/07 03:32:02;;;;;;;;;;;;;;;;;;1047850;28;3824;-67
2022/04/07 03:32:32;;;;;;;;;;;;;;;;;;1047650;28;3937;-66
2022/04/07 03:33:02;;;;;;;;;;;;;;;;;;1047004;28;2963;-66
2022/04/07 03:33:32;;;;;;;;;;;;;;;;;;1044636;28;4346;-67
2022/04/07 03:34:03;;;;;;;;;;;;;;;;;;1049579;28;2491;-66
2022/04/07 03:34:33;;;;;;;;;;;;;;;;;;1045426;28;4120;-67
2022/04/07 03:35:04;;;;;;;;;;;;;;;;;;1043960;28;3154;-66
2022/04/07 03:35:36;;;;;;;;;;;;;;;;;;1048836;28;4079;-66
2022/04/07 03:36:07;;;;;;;;;;;;;;;;;;1048001;28;2202;-68